Time;durP1;ratioP1;P1;durP2;ratioP2;P2;SDS_P1;SDS_P2;PMS_P1;PMS_P2;Temp;Humidity;BMP_temperature;BMP_pressure;BME280_temperature;BME280_humidity;BME280_pressure;Samples;Min_cycle;Max_cycle;Signal;HPM_P1;HPM_P2
2021/10/21 00:00:32;;;;;;;11.13;5.80;;;13.70;99.90;;;;;;6219881;23;20046;-89
2021/10/21 00:03:00;;;;;;;13.13;6.80;;;13.80;99.90;;;;;;6219799;23;20480;-90
2021/10/21 00:05:27;;;;;;;13.57;7.40;;;13.80;99.90;;;;;;6220437;23;19996;-89
2021/10/21 00:07:53;;;;;;;14.48;8.30;;;13.80;99.90;;;;;;6195545;23;20004;-90
2021/10/21 00:10:19;;;;;;;15.18;8.45;;;13.90;99.90;;;;;;6220275;23;20101;-90
2021/10/21 00:12:45;;;;;;;13.23;7.93;;;13.90;99.90;;;;;;6220419;23;20389;-90
2021/10/21 00:15:17;;;;;;;13.65;8.32;;;13.90;99.90;;;;;;6220973;23;20000;-89
2021/10/21 00:17:43;;;;;;;16.42;9.43;;;14.00;99.90;;;;;;6220476;23;20015;-90
2021/10/21 00:20:10;;;;;;;17.73;8.40;;;14.00;99.90;;;;;;6220567;23;19999;-89
2021/10/21 00:22:37;;;;;;;16.58;8.70;;;14.10;99.90;;;;;;6220415;23;19999;-89
2021/10/21 00:25:05;;;;;;;21.92;8.95;;;14.00;99.90;;;;;;6220518;23;20095;-89
2021/10/21 00:27:31;;;;;;;14.20;7.18;;;14.10;99.90;;;;;;6219063;23;19997;-90
2021/10/21 00:29:57;;;;;;;10.68;6.05;;;14.00;99.90;;;;;;6217494;23;20027;-89
2021/10/21 00:32:24;;;;;;;11.77;6.32;;;14.00;99.90;;;;;;6193258;23;20008;-88
2021/10/21 00:34:50;;;;;;;12.52;6.90;;;13.90;99.90;;;;;;6193799;23;20078;-88
2021/10/21 00:37:15;;;;;;;14.27;7.95;;;13.90;99.90;;;;;;6219360;23;20036;-89
2021/10/21 00:39:41;;;;;;;13.38;7.40;;;13.90;99.90;;;;;;6219264;23;20003;-90
2021/10/21 00:42:07;;;;;;;11.02;7.43;;;13.90;99.90;;;;;;6195251;23;20485;-89
2021/10/21 00:44:33;;;;;;;14.98;8.43;;;13.90;99.90;;;;;;6220523;23;20356;-89
2021/10/21 00:47:00;;;;;;;14.30;7.10;;;13.90;99.90;;;;;;6246920;23;19992;-89
2021/10/21 00:49:25;;;;;;;11.93;6.13;;;14.00;99.90;;;;;;6220365;23;20083;-89
2021/10/21 00:51:54;;;;;;;15.07;8.35;;;14.00;99.90;;;;;;6220426;23;20068;-90
2021/10/21 00:54:20;;;;;;;10.75;7.45;;;14.00;99.90;;;;;;6195716;23;20079;-88
2021/10/21 00:56:51;;;;;;;11.30;7.53;;;14.00;99.90;;;;;;6247049;23;20012;-89
2021/10/21 00:59:18;;;;;;;10.95;7.53;;;14.00;99.90;;;;;;6245096;23;20010;-89
2021/10/21 01:01:44;;;;;;;12.57;6.60;;;14.00;99.90;;;;;;6195104;23;20012;-91
2021/10/21 01:04:12;;;;;;;11.20;5.60;;;14.00;99.90;;;;;;6221202;23;20007;-91
2021/10/21 01:06:42;;;;;;;10.77;5.90;;;14.00;99.90;;;;;;6222370;23;20011;-91
2021/10/21 01:09:10;;;;;;;9.40;5.40;;;13.90;99.90;;;;;;6222518;23;20027;-91
2021/10/21 01:11:39;;;;;;;8.88;5.03;;;13.90;99.90;;;;;;6222525;23;20011;-89
2021/10/21 01:14:06;;;;;;;9.70;5.00;;;13.90;99.90;;;;;;6249184;23;19992;-89
2021/10/21 01:16:33;;;;;;;11.00;3.95;;;13.80;99.90;;;;;;6221948;23;20043;-89
2021/10/21 01:18:59;;;;;;;6.22;3.38;;;13.80;99.90;;;;;;6221995;23;20359;-89
2021/10/21 01:21:24;;;;;;;7.28;3.47;;;13.70;99.90;;;;;;6196961;23;20020;-89
2021/10/21 01:23:51;;;;;;;7.97;2.53;;;13.60;99.90;;;;;;6248966;23;20075;-89
2021/10/21 01:26:18;;;;;;;7.43;2.55;;;13.60;99.90;;;;;;6222316;23;19996;-89
2021/10/21 01:28:43;;;;;;;6.68;3.00;;;13.50;99.90;;;;;;6248054;23;20004;-90
2021/10/21 01:31:12;;;;;;;9.60;3.08;;;13.50;99.90;;;;;;6248726;23;19996;-89
2021/10/21 01:33:39;;;;;;;6.15;2.40;;;13.50;99.90;;;;;;6218371;23;20003;-91
2021/10/21 01:36:12;;;;;;;6.22;2.38;;;13.50;99.90;;;;;;6221728;23;20067;-90
2021/10/21 01:38:43;;;;;;;7.50;2.22;;;13.50;99.90;;;;;;6196679;23;20058;-91
2021/10/21 01:41:09;;;;;;;5.70;2.05;;;13.50;99.90;;;;;;6220794;23;20447;-90
2021/10/21 01:43:44;;;;;;;4.40;1.67;;;13.40;99.90;;;;;;6248680;23;20023;-91
2021/10/21 01:46:11;;;;;;;5.95;1.60;;;13.50;99.90;;;;;;6194994;23;20015;-90
2021/10/21 01:48:38;;;;;;;3.67;1.38;;;13.40;99.90;;;;;;6195682;23;20068;-91
2021/10/21 01:51:05;;;;;;;4.07;1.60;;;13.20;99.90;;;;;;6216601;23;20004;-92
2021/10/21 01:53:31;;;;;;;2.40;0.95;;;12.90;99.90;;;;;;6220369;23;20069;-92
2021/10/21 01:55:57;;;;;;;3.95;1.20;;;12.70;99.90;;;;;;6194741;23;20452;-89
2021/10/21 01:58:29;;;;;;;2.83;0.75;;;12.60;99.90;;;;;;6221226;23;20167;-91
2021/10/21 02:01:15;;;;;;;2.63;0.50;;;12.40;99.90;;;;;;6221068;23;20015;-90
2021/10/21 02:03:41;;;;;;;1.85;0.65;;;12.30;99.90;;;;;;6219858;23;20010;-91
2021/10/21 02:06:13;;;;;;;8.88;1.00;;;12.10;99.90;;;;;;6219726;23;20007;-93
2021/10/21 02:08:40;;;;;;;3.97;0.90;;;12.00;99.90;;;;;;6247806;23;20027;-93
2021/10/21 02:11:06;;;;;;;4.85;1.02;;;12.00;99.90;;;;;;6195065;23;20004;-91
2021/10/21 02:13:32;;;;;;;2.63;0.70;;;11.90;99.90;;;;;;6196499;23;20431;-92
2021/10/21 02:15:58;;;;;;;3.45;1.00;;;11.90;99.90;;;;;;6248088;23;19996;-92
2021/10/21 02:18:30;;;;;;;2.67;1.33;;;11.80;99.90;;;;;;6221522;23;20042;-92
2021/10/21 02:20:58;;;;;;;3.40;1.08;;;11.70;99.90;;;;;;6221567;23;20078;-92
2021/10/21 02:23:26;;;;;;;3.88;1.05;;;11.60;99.90;;;;;;6197198;23;20011;-91
2021/10/21 02:26:03;;;;;;;4.28;1.10;;;11.50;99.90;;;;;;6221341;23;20098;-92
2021/10/21 02:28:51;;;;;;;2.78;0.75;;;11.50;99.90;;;;;;6248440;23;19996;-92
2021/10/21 02:31:18;;;;;;;5.47;1.10;;;11.40;99.90;;;;;;6196394;23;20353;-91
2021/10/21 02:33:54;;;;;;;3.47;0.80;;;11.40;99.90;;;;;;6221560;23;19996;-92
2021/10/21 02:36:22;;;;;;;3.50;0.95;;;11.50;99.90;;;;;;6221320;23;20048;-90
2021/10/21 02:38:48;;;;;;;5.07;0.80;;;11.50;99.90;;;;;;6196638;23;20015;-92
2021/10/21 02:41:40;;;;;;;4.72;1.20;;;11.50;99.90;;;;;;6221044;23;20024;-92
2021/10/21 02:44:06;;;;;;;6.38;0.93;;;11.60;99.90;;;;;;6221275;23;20004;-92
2021/10/21 02:46:37;;;;;;;4.75;0.93;;;11.70;99.90;;;;;;6221460;23;20000;-92
2021/10/21 02:49:08;;;;;;;5.90;0.80;;;11.80;99.90;;;;;;6221128;23;20008;-92
2021/10/21 02:51:34;;;;;;;6.68;0.95;;;11.90;99.90;;;;;;6221873;23;20308;-91
2021/10/21 02:54:00;;;;;;;5.32;0.77;;;11.90;99.90;;;;;;6221352;23;20003;-93
2021/10/21 02:56:27;;;;;;;5.20;0.82;;;12.00;99.90;;;;;;6195690;23;20083;-91
2021/10/21 02:58:56;;;;;;;7.22;1.33;;;12.00;99.90;;;;;;6196132;23;20012;-92
2021/10/21 03:01:26;;;;;;;3.05;0.80;;;12.10;99.90;;;;;;6170410;23;20087;-92
2021/10/21 03:03:57;;;;;;;8.13;1.83;;;12.10;99.90;;;;;;6196175;23;20088;-90
2021/10/21 03:06:24;;;;;;;4.95;0.85;;;12.10;99.90;;;;;;6220624;23;20111;-92
2021/10/21 03:08:52;;;;;;;5.40;1.02;;;12.10;99.90;;;;;;6220901;23;20448;-92
2021/10/21 03:11:19;;;;;;;4.25;1.08;;;12.20;99.90;;;;;;6221579;23;20012;-92
2021/10/21 03:13:45;;;;;;;3.90;0.75;;;12.20;99.90;;;;;;6221579;23;20352;-92
2021/10/21 03:16:11;;;;;;;5.32;0.82;;;12.20;99.90;;;;;;6221171;23;20004;-90
2021/10/21 03:18:38;;;;;;;4.50;0.70;;;12.20;99.90;;;;;;6195641;23;20058;-92
2021/10/21 03:21:04;;;;;;;2.92;0.50;;;12.00;99.90;;;;;;6171565;23;20008;-91
2021/10/21 03:23:33;;;;;;;2.75;0.60;;;11.80;99.90;;;;;;6195838;23;20412;-92
2021/10/21 03:26:01;;;;;;;3.28;0.75;;;11.70;99.90;;;;;;6221126;23;20000;-92
2021/10/21 03:28:31;;;;;;;3.15;0.73;;;11.60;99.90;;;;;;6221046;23;20020;-92
2021/10/21 03:31:02;;;;;;;5.53;0.60;;;11.60;99.90;;;;;;6197126;23;20523;-93
2021/10/21 03:33:30;;;;;;;6.53;1.05;;;11.60;99.90;;;;;;6195920;23;20447;-92
2021/10/21 03:35:59;;;;;;;5.78;0.65;;;11.60;99.90;;;;;;6195260;23;20020;-92
2021/10/21 03:38:25;;;;;;;4.45;0.85;;;11.50;99.90;;;;;;6220426;23;20004;-95
2021/10/21 03:41:02;;;;;;;7.88;1.00;;;11.50;99.90;;;;;;6195925;23;20007;-93
2021/10/21 03:43:48;;;;;;;7.13;1.25;;;11.50;99.90;;;;;;6220149;23;20003;-92
2021/10/21 03:46:15;;;;;;;4.40;0.95;;;11.50;99.90;;;;;;6247574;23;20472;-92
2021/10/21 03:48:44;;;;;;;4.57;0.98;;;11.50;99.90;;;;;;6196274;23;20007;-92
2021/10/21 03:51:14;;;;;;;4.55;1.10;;;11.50;99.90;;;;;;6221097;23;20035;-91
2021/10/21 03:53:53;;;;;;;5.15;1.00;;;11.50;99.90;;;;;;6246212;23;20000;-89
2021/10/21 03:56:23;;;;;;;5.43;1.23;;;11.50;99.90;;;;;;6171036;23;20012;-92
2021/10/21 03:58:49;;;;;;;3.67;0.98;;;11.50;99.90;;;;;;6220130;23;20011;-92
2021/10/21 04:01:21;;;;;;;3.90;0.80;;;11.50;99.90;;;;;;6195444;23;20316;-92
2021/10/21 04:03:51;;;;;;;2.70;1.00;;;11.50;99.90;;;;;;6221372;23;20082;-92
2021/10/21 04:06:21;;;;;;;3.85;0.60;;;11.50;99.90;;;;;;6220637;23;20003;-92
2021/10/21 04:08:47;;;;;;;3.92;0.75;;;11.50;99.90;;;;;;6220847;23;20056;-92
2021/10/21 04:11:15;;;;;;;4.10;0.82;;;11.50;99.90;;;;;;6220048;23;20385;-92
2021/10/21 04:13:46;;;;;;;5.85;0.90;;;11.50;99.90;;;;;;6220974;23;20001;-94
2021/10/21 04:16:14;;;;;;;4.07;0.90;;;11.50;99.90;;;;;;6220780;23;20010;-93
2021/10/21 04:19:01;;;;;;;4.43;0.80;;;11.40;99.90;;;;;;6195835;23;20442;-93
2021/10/21 04:21:42;;;;;;;6.53;1.02;;;11.40;99.90;;;;;;6195584;23;20012;-94
2021/10/21 04:24:08;;;;;;;5.70;1.00;;;11.40;99.90;;;;;;6220817;23;20028;-92
2021/10/21 04:26:38;;;;;;;5.63;1.67;;;11.30;99.90;;;;;;6195676;23;20313;-92
2021/10/21 04:29:10;;;;;;;5.03;0.88;;;11.40;99.90;;;;;;6247337;23;20004;-92
2021/10/21 04:31:36;;;;;;;2.50;0.80;;;11.30;99.90;;;;;;6220650;23;20001;-92
2021/10/21 04:34:13;;;;;;;4.72;0.80;;;11.30;99.90;;;;;;6220413;23;20018;-92
2021/10/21 04:36:50;;;;;;;4.55;0.90;;;11.30;99.90;;;;;;6220321;23;20016;-94
2021/10/21 04:39:19;;;;;;;4.07;0.75;;;11.30;99.90;;;;;;6221173;23;20031;-92
2021/10/21 04:41:57;;;;;;;4.97;1.10;;;11.30;99.90;;;;;;6221697;23;20487;-92
2021/10/21 04:44:24;;;;;;;2.83;0.82;;;11.30;99.90;;;;;;6197888;23;20015;-92
2021/10/21 04:46:51;;;;;;;5.28;1.10;;;11.30;99.90;;;;;;6198358;23;20096;-92
2021/10/21 04:49:19;;;;;;;4.93;1.05;;;11.30;99.90;;;;;;6223413;23;20115;-93
2021/10/21 04:51:47;;;;;;;5.97;1.45;;;11.30;99.90;;;;;;6198016;23;20026;-91
2021/10/21 04:54:13;;;;;;;3.88;0.82;;;11.30;99.90;;;;;;6222814;23;20004;-93
2021/10/21 04:56:43;;;;;;;3.03;1.13;;;11.30;99.90;;;;;;6249592;23;20006;-92
2021/10/21 04:59:12;;;;;;;4.30;0.77;;;11.30;99.90;;;;;;6223059;23;20000;-94
2021/10/21 05:01:47;;;;;;;4.85;1.17;;;11.30;99.90;;;;;;6197363;23;20008;-91
2021/10/21 05:04:14;;;;;;;2.70;0.80;;;11.30;99.90;;;;;;6222115;23;20012;-93
2021/10/21 05:06:44;;;;;;;4.38;1.10;;;11.20;99.90;;;;;;6222944;23;20007;-93
2021/10/21 05:09:11;;;;;;;3.17;0.90;;;11.30;99.90;;;;;;6222677;23;20075;-93
2021/10/21 05:11:37;;;;;;;4.63;1.08;;;11.30;99.90;;;;;;6221757;23;20137;-93
2021/10/21 05:14:03;;;;;;;3.78;1.02;;;11.30;99.90;;;;;;6222074;23;20000;-92
2021/10/21 05:16:29;;;;;;;4.50;1.10;;;11.30;99.90;;;;;;6222498;23;20309;-92
2021/10/21 05:18:54;;;;;;;4.53;1.00;;;11.30;99.90;;;;;;6221474;23;20007;-92
2021/10/21 05:21:22;;;;;;;6.22;1.20;;;11.30;99.90;;;;;;6222364;23;20000;-92
2021/10/21 05:23:53;;;;;;;5.47;1.45;;;11.30;99.90;;;;;;6248821;23;19996;-93
2021/10/21 05:26:18;;;;;;;6.85;1.40;;;11.20;99.90;;;;;;6222715;23;20004;-92
2021/10/21 05:28:46;;;;;;;4.55;1.20;;;11.20;99.90;;;;;;6248717;23;20484;-93
2021/10/21 05:31:12;;;;;;;7.00;1.55;;;11.30;99.90;;;;;;6248092;23;20000;-92
2021/10/21 05:33:39;;;;;;;3.08;1.20;;;11.20;99.90;;;;;;6222199;23;20008;-91
2021/10/21 05:36:08;;;;;;;5.60;1.20;;;11.20;99.90;;;;;;6221637;23;20106;-91
2021/10/21 05:38:34;;;;;;;5.28;1.45;;;11.20;99.90;;;;;;6221604;23;20003;-90
2021/10/21 05:41:02;;;;;;;5.00;1.50;;;11.20;99.90;;;;;;6222346;23;20046;-91
2021/10/21 05:43:28;;;;;;;8.10;2.25;;;11.20;99.90;;;;;;6196984;23;20000;-90
2021/10/21 05:45:55;;;;;;;4.95;2.00;;;11.30;99.90;;;;;;6248720;23;20000;-88
2021/10/21 05:48:21;;;;;;;4.30;1.75;;;11.20;99.90;;;;;;6221870;23;20458;-90
2021/10/21 05:50:47;;;;;;;3.05;1.50;;;11.20;99.90;;;;;;6195762;23;20092;-89
2021/10/21 05:53:15;;;;;;;2.55;1.10;;;11.10;99.90;;;;;;6248363;23;20000;-88
2021/10/21 05:55:44;;;;;;;2.90;0.82;;;11.00;99.90;;;;;;6221282;23;19996;-88
2021/10/21 05:58:13;;;;;;;1.42;0.60;;;10.80;99.90;;;;;;6220712;23;20014;-88
2021/10/21 06:00:41;;;;;;;2.67;0.52;;;10.60;99.90;;;;;;6221311;23;20003;-85
2021/10/21 06:03:07;;;;;;;0.88;0.40;;;10.40;99.90;;;;;;6221521;23;20290;-88
2021/10/21 06:05:33;;;;;;;3.85;0.65;;;10.30;99.90;;;;;;6221317;23;20050;-88
2021/10/21 06:08:00;;;;;;;3.60;0.45;;;10.20;99.90;;;;;;6221251;23;19999;-87
2021/10/21 06:10:27;;;;;;;1.75;0.50;;;10.20;99.90;;;;;;6221278;23;20000;-88
2021/10/21 06:12:52;;;;;;;3.22;0.50;;;10.10;99.90;;;;;;6221499;23;20079;-88
2021/10/21 06:15:18;;;;;;;2.55;0.40;;;10.10;99.90;;;;;;6248158;23;20034;-89
2021/10/21 06:17:45;;;;;;;2.03;0.40;;;10.10;99.90;;;;;;6221291;23;20007;-88
2021/10/21 06:20:14;;;;;;;1.10;0.32;;;10.10;99.90;;;;;;6221884;23;20030;-88
2021/10/21 06:22:41;;;;;;;1.90;0.40;;;10.10;99.90;;;;;;6197229;23;20084;-87
2021/10/21 06:25:09;;;;;;;2.28;0.70;;;10.10;99.90;;;;;;6248374;23;20000;-89
2021/10/21 06:27:35;;;;;;;3.40;0.77;;;10.10;99.90;;;;;;6222558;23;20007;-88
2021/10/21 06:30:01;;;;;;;4.55;0.70;;;10.20;99.90;;;;;;6197514;23;20466;-89
2021/10/21 06:32:27;;;;;;;3.95;1.17;;;10.20;99.90;;;;;;6249247;23;20000;-88
2021/10/21 06:34:53;;;;;;;2.88;0.50;;;10.20;99.90;;;;;;6224416;23;20079;-88
2021/10/21 06:37:20;;;;;;;2.22;0.50;;;10.20;99.90;;;;;;6224904;23;20011;-89
2021/10/21 06:39:54;;;;;;;2.75;0.60;;;10.20;99.90;;;;;;6175732;23;20047;-89
2021/10/21 06:42:22;;;;;;;4.50;0.50;;;10.30;99.90;;;;;;6225129;23;20006;-89
2021/10/21 06:45:13;;;;;;;3.22;0.68;;;10.30;99.90;;;;;;6250347;23;20006;-90
2021/10/21 06:47:43;;;;;;;4.20;0.50;;;10.30;99.90;;;;;;6198241;23;20000;-90
2021/10/21 06:50:10;;;;;;;5.63;1.30;;;10.30;99.90;;;;;;6222194;23;20019;-90
2021/10/21 06:52:52;;;;;;;;;;;10.30;99.90;;;;;;6250485;23;20003;-90
2021/10/21 06:55:18;;;;;;;5.18;0.80;;;10.30;99.90;;;;;;6221693;23;19955;-89
2021/10/21 06:57:51;;;;;;;3.40;1.17;;;10.30;99.90;;;;;;6249207;23;19996;-89
2021/10/21 07:00:18;;;;;;;5.97;1.85;;;10.30;99.90;;;;;;6250699;23;19992;-89
2021/10/21 07:02:44;;;;;;;3.60;0.60;;;10.30;99.90;;;;;;6199862;23;20004;-91
2021/10/21 07:05:12;;;;;;;5.68;1.23;;;10.40;99.90;;;;;;6224414;23;20083;-91
2021/10/21 07:07:48;;;;;;;8.35;1.05;;;10.40;99.90;;;;;;6227538;23;20000;-91
2021/10/21 07:10:14;;;;;;;8.50;1.25;;;10.40;99.90;;;;;;6232199;23;20439;-91
2021/10/21 07:12:47;;;;;;;7.72;1.60;;;10.40;99.90;;;;;;6230266;23;20004;-92
2021/10/21 07:15:15;;;;;;;6.38;1.17;;;10.30;99.90;;;;;;6227536;23;20004;-90
2021/10/21 07:17:41;;;;;;;8.68;1.65;;;10.30;99.90;;;;;;6224656;23;20347;-91
2021/10/21 07:20:10;;;;;;;9.02;1.50;;;10.30;99.90;;;;;;6222340;23;20023;-93
2021/10/21 07:22:36;;;;;;;10.90;1.50;;;10.30;99.90;;;;;;6222884;23;20110;-93
2021/10/21 07:25:04;;;;;;;9.25;1.40;;;10.30;99.90;;;;;;6222651;23;20024;-89
2021/10/21 07:27:30;;;;;;;11.52;1.70;;;10.30;99.90;;;;;;6222565;23;20003;-89
2021/10/21 07:29:59;;;;;;;7.72;1.40;;;10.40;99.90;;;;;;6172492;23;20308;-90
2021/10/21 07:32:26;;;;;;;11.25;1.77;;;10.40;99.90;;;;;;6220842;23;20011;-90
2021/10/21 07:34:53;;;;;;;9.48;2.05;;;10.40;99.90;;;;;;6220289;23;20004;-89
2021/10/21 07:37:20;;;;;;;13.02;1.70;;;10.40;99.90;;;;;;6247303;22;20004;-89
2021/10/21 07:39:47;;;;;;;16.80;2.55;;;10.40;99.90;;;;;;6220362;23;20003;-89
2021/10/21 07:42:15;;;;;;;9.25;2.08;;;10.50;99.90;;;;;;6221187;23;20050;-90
2021/10/21 07:44:47;;;;;;;15.82;2.60;;;10.50;99.90;;;;;;6221615;23;19996;-90
2021/10/21 07:47:27;;;;;;;11.93;2.58;;;10.50;99.90;;;;;;6222558;23;20000;-90
2021/10/21 07:49:58;;;;;;;10.25;2.30;;;10.50;99.90;;;;;;6198566;23;20008;-91
2021/10/21 07:52:25;;;;;;;14.77;2.33;;;10.50;99.90;;;;;;6246099;23;20015;-91
2021/10/21 07:54:54;;;;;;;10.82;3.13;;;10.40;99.90;;;;;;6221149;23;20003;-92
2021/10/21 07:57:20;;;;;;;13.88;2.00;;;10.30;99.90;;;;;;6197594;23;20004;-92
2021/10/21 08:00:12;;;;;;;12.80;2.58;;;10.30;99.90;;;;;;6220958;23;20046;-93
2021/10/21 08:02:46;;;;;;;11.93;2.30;;;10.30;99.90;;;;;;6247916;23;20018;-92
2021/10/21 08:05:20;;;;;;;14.68;2.13;;;10.40;99.90;;;;;;6218584;23;20004;-93
2021/10/21 08:07:48;;;;;;;12.50;2.70;;;10.30;99.90;;;;;;6194081;23;20004;-91
2021/10/21 08:10:24;;;;;;;14.77;2.38;;;10.40;99.90;;;;;;6245722;23;20019;-92
2021/10/21 08:12:52;;;;;;;12.00;2.22;;;10.40;99.90;;;;;;6218566;23;19996;-91
2021/10/21 08:15:25;;;;;;;10.68;2.13;;;10.50;99.90;;;;;;6191580;23;20012;-92
2021/10/21 08:17:54;;;;;;;11.73;2.15;;;10.60;99.90;;;;;;6217910;23;20004;-91
2021/10/21 08:20:24;;;;;;;14.27;2.33;;;10.70;99.90;;;;;;6168326;23;20004;-90
2021/10/21 08:22:56;;;;;;;11.43;1.80;;;10.70;99.90;;;;;;6218852;23;20039;-90
2021/10/21 08:25:27;;;;;;;9.77;1.70;;;10.70;99.90;;;;;;6194606;23;20301;-91
2021/10/21 08:27:54;;;;;;;8.85;1.65;;;10.60;99.90;;;;;;6243390;23;20047;-91
2021/10/21 08:30:24;;;;;;;13.27;2.10;;;10.70;99.90;;;;;;6218441;23;20004;-91
2021/10/21 08:33:03;;;;;;;12.57;2.05;;;10.70;99.90;;;;;;6216755;23;20083;-91
2021/10/21 08:35:31;;;;;;;12.00;2.05;;;10.70;99.90;;;;;;6218872;22;20000;-91
2021/10/21 08:38:00;;;;;;;8.63;1.95;;;10.80;99.90;;;;;;6218366;23;20079;-92
2021/10/21 08:40:33;;;;;;;9.90;1.75;;;10.80;99.90;;;;;;6218341;23;20417;-91
2021/10/21 08:43:07;;;;;;;8.55;1.48;;;10.90;99.90;;;;;;6194289;23;20012;-92
2021/10/21 08:45:34;;;;;;;10.70;1.67;;;11.00;99.90;;;;;;6194618;23;20058;-91
2021/10/21 08:48:13;;;;;;;6.80;1.40;;;11.10;99.90;;;;;;6218066;23;20347;-91
2021/10/21 08:51:06;;;;;;;5.45;1.20;;;11.30;99.90;;;;;;6218369;23;20293;-91
2021/10/21 08:53:33;;;;;;;9.35;1.95;;;11.50;99.90;;;;;;6216434;23;20040;-91
2021/10/21 08:56:14;;;;;;;8.35;1.30;;;11.70;99.90;;;;;;6219250;23;20008;-92
2021/10/21 08:58:42;;;;;;;10.18;2.10;;;11.70;99.90;;;;;;6194432;23;20008;-88
2021/10/21 09:01:41;;;;;;;6.03;1.50;;;11.60;99.90;;;;;;6219080;23;20083;-92
2021/10/21 09:17:13;;;;;;;;;;;10.90;99.90;;;;;;6069754;23;20030;-91
2021/10/21 09:19:43;;;;;;;4.68;1.27;;;10.60;99.90;;;;;;5980665;23;19942;-93
2021/10/21 09:22:29;;;;;;;3.95;1.10;;;10.50;99.90;;;;;;5996214;23;20045;-93
2021/10/21 09:25:58;;;;;;;;;;;;;;;;;;;;;
2021/10/21 09:36:35;;;;;;;;;;;;;;;;;;;;;
2021/10/21 09:43:37;;;;;;;10.27;1.50;;;10.30;99.90;;;;;;5826839;24;20450;-93
2021/10/21 09:46:43;;;;;;;8.20;2.22;;;10.20;99.90;;;;;;5749152;24;20012;-94
2021/10/21 09:49:33;;;;;;;9.63;1.50;;;10.20;99.90;;;;;;5749302;24;20004;-94
2021/10/21 09:52:25;;;;;;;8.20;1.85;;;10.20;99.90;;;;;;5768813;24;20008;-94
2021/10/21 09:54:52;;;;;;;9.40;1.60;;;10.10;99.90;;;;;;5723205;24;20480;-95
2021/10/21 09:57:28;;;;;;;13.10;1.73;;;10.10;99.90;;;;;;5767457;24;20012;-94
2021/10/21 10:00:08;;;;;;;5.55;1.40;;;10.10;99.90;;;;;;5745738;24;20012;-94
2021/10/21 10:02:40;;;;;;;10.98;2.35;;;10.10;99.90;;;;;;5870466;24;20011;-94
2021/10/21 10:05:16;;;;;;;9.60;1.65;;;10.00;99.90;;;;;;5959041;24;20004;-94
2021/10/21 10:07:45;;;;;;;7.03;2.00;;;10.00;99.90;;;;;;6045652;23;20073;-96
2021/10/21 10:10:12;;;;;;;15.52;2.58;;;10.00;99.90;;;;;;6046532;23;20058;-94
2021/10/21 10:12:45;;;;;;;6.60;1.88;;;10.00;99.90;;;;;;6048249;23;19999;-94
2021/10/21 10:15:16;;;;;;;9.48;1.58;;;9.90;99.90;;;;;;6070990;23;20094;-94
2021/10/21 10:17:43;;;;;;;8.05;2.20;;;10.00;99.90;;;;;;6046987;23;20007;-94
2021/10/21 10:20:13;;;;;;;9.95;1.80;;;10.00;99.90;;;;;;6164146;23;20436;-94
2021/10/21 10:22:46;;;;;;;8.45;2.20;;;10.20;99.90;;;;;;6194804;23;20001;-90
2021/10/21 10:25:24;;;;;;;7.43;1.90;;;10.30;99.90;;;;;;6220496;23;20004;-91
2021/10/21 10:28:13;;;;;;;10.48;1.50;;;10.50;99.90;;;;;;6180279;23;20079;-92
2021/10/21 10:30:59;;;;;;;11.23;1.90;;;10.70;99.90;;;;;;6220251;23;20448;-91
2021/10/21 10:33:40;;;;;;;12.30;2.13;;;10.90;99.90;;;;;;6192857;23;20000;-91
2021/10/21 10:36:32;;;;;;;5.93;1.52;;;11.40;99.90;;;;;;6194063;23;20356;-91
2021/10/21 10:39:06;;;;;;;11.65;1.77;;;11.70;99.90;;;;;;6168663;23;20036;-91
2021/10/21 10:41:45;;;;;;;8.85;1.75;;;11.60;99.90;;;;;;6197774;23;20007;-91
2021/10/21 10:44:33;;;;;;;7.68;1.80;;;11.50;99.90;;;;;;6192647;23;20004;-90
2021/10/21 10:47:09;;;;;;;14.73;3.08;;;11.50;99.90;;;;;;6213977;23;20301;-90
2021/10/21 10:49:50;;;;;;;13.50;2.00;;;11.60;99.90;;;;;;6220551;23;20001;-92
2021/10/21 10:52:18;;;;;;;10.82;1.77;;;11.90;99.90;;;;;;6194298;23;20417;-93
2021/10/21 10:55:02;;;;;;;9.60;2.00;;;12.40;99.90;;;;;;6195267;23;20000;-88
2021/10/21 10:57:28;;;;;;;9.80;1.65;;;12.60;99.90;;;;;;6193762;23;20011;-90
2021/10/21 10:59:59;;;;;;;9.13;1.67;;;12.50;99.90;;;;;;6194204;23;19997;-90
2021/10/21 11:02:28;;;;;;;15.48;1.83;;;12.40;99.90;;;;;;6167410;23;20004;-90
2021/10/21 11:05:07;;;;;;;9.35;1.52;;;12.30;99.90;;;;;;6217812;23;20313;-91
2021/10/21 11:07:39;;;;;;;7.18;1.77;;;12.50;99.90;;;;;;6191318;23;20001;-91
2021/10/21 11:10:26;;;;;;;11.07;2.13;;;12.50;99.90;;;;;;6191303;23;20032;-90
2021/10/21 11:12:58;;;;;;;6.68;1.30;;;12.30;99.90;;;;;;6217990;23;20075;-89
2021/10/21 11:15:40;;;;;;;10.95;2.10;;;12.10;99.90;;;;;;6192104;23;20009;-90
2021/10/21 11:18:44;;;;;;;14.18;2.15;;;11.90;99.90;;;;;;6218635;23;20019;-90
2021/10/21 11:21:47;;;;;;;8.88;1.80;;;11.80;99.90;;;;;;6171163;23;20010;-91
2021/10/21 11:24:48;;;;;;;6.93;1.65;;;11.80;99.90;;;;;;6191527;23;20055;-90
2021/10/21 11:27:22;;;;;;;11.70;1.40;;;11.70;99.90;;;;;;6191176;23;20040;-91
2021/10/21 11:29:51;;;;;;;6.40;1.30;;;11.70;99.90;;;;;;6191403;23;20062;-91
2021/10/21 11:32:17;;;;;;;4.72;1.20;;;11.60;99.90;;;;;;6167142;23;20000;-89
2021/10/21 11:34:48;;;;;;;8.38;1.23;;;11.50;99.90;;;;;;6191560;23;20000;-90
2021/10/21 11:37:14;;;;;;;5.60;1.10;;;11.50;99.90;;;;;;6196639;23;20024;-90
2021/10/21 11:39:43;;;;;;;9.35;1.77;;;11.50;99.90;;;;;;6196288;23;20100;-91
2021/10/21 11:42:11;;;;;;;6.20;1.38;;;11.50;99.90;;;;;;6221520;23;20058;-91
2021/10/21 11:44:41;;;;;;;6.20;1.17;;;12.20;99.90;;;;;;6196810;23;20319;-92
2021/10/21 11:47:21;;;;;;;7.75;1.60;;;13.60;99.90;;;;;;6222000;23;20082;-91
2021/10/21 11:49:59;;;;;;;5.25;1.05;;;14.00;99.90;;;;;;6221707;23;20085;-90
2021/10/21 11:52:36;;;;;;;7.15;1.35;;;13.80;99.90;;;;;;6221981;23;20004;-89
2021/10/21 11:55:06;;;;;;;6.15;1.08;;;13.30;99.90;;;;;;6247948;23;20071;-89
2021/10/21 11:57:39;;;;;;;2.85;0.50;;;12.70;99.90;;;;;;6247722;23;20000;-90
2021/10/21 12:00:28;;;;;;;1.85;0.50;;;11.80;99.90;;;;;;6247053;23;20003;-89
2021/10/21 12:02:56;;;;;;;1.05;0.30;;;11.10;99.90;;;;;;6221642;23;20065;-91
2021/10/21 12:05:31;;;;;;;2.40;0.35;;;10.70;99.90;;;;;;6196579;23;20004;-89
2021/10/21 12:08:00;;;;;;;0.70;0.30;;;10.30;99.90;;;;;;6222203;23;19996;-91
2021/10/21 12:10:28;;;;;;;1.77;0.30;;;10.00;99.90;;;;;;6197279;23;20000;-92
2021/10/21 12:12:58;;;;;;;1.75;0.35;;;9.90;99.90;;;;;;6221593;23;20316;-92
2021/10/21 12:15:29;;;;;;;2.15;0.93;;;9.80;99.90;;;;;;6221151;23;20099;-93
2021/10/21 12:18:07;;;;;;;2.40;0.40;;;9.80;99.90;;;;;;6220947;23;20027;-93
2021/10/21 12:20:55;;;;;;;4.13;0.52;;;9.80;99.90;;;;;;6221317;23;20027;-94
2021/10/21 12:23:30;;;;;;;1.98;0.30;;;9.80;99.90;;;;;;6248948;23;20023;-94
2021/10/21 12:26:04;;;;;;;1.23;0.20;;;9.80;99.90;;;;;;6248714;23;20472;-94
2021/10/21 12:28:47;;;;;;;2.92;0.40;;;9.80;99.90;;;;;;6248620;23;19996;-92
2021/10/21 12:31:36;;;;;;;2.97;0.70;;;9.90;99.90;;;;;;6221800;23;20022;-93
2021/10/21 12:34:26;;;;;;;1.42;0.60;;;9.90;99.90;;;;;;6197199;23;20054;-93
2021/10/21 12:36:55;;;;;;;1.17;0.30;;;10.00;99.90;;;;;;6247001;22;20134;-94
2021/10/21 12:39:33;;;;;;;1.08;0.40;;;9.90;99.90;;;;;;6219086;23;20327;-94
2021/10/21 12:42:30;;;;;;;3.83;0.65;;;9.90;99.90;;;;;;6219819;23;20026;-93
2021/10/21 12:45:00;;;;;;;2.08;0.80;;;9.90;99.90;;;;;;6070655;23;20014;-92
2021/10/21 12:47:35;;;;;;;2.78;0.80;;;9.90;99.90;;;;;;6095295;23;20074;-92
2021/10/21 12:50:11;;;;;;;5.40;0.82;;;9.90;99.90;;;;;;6071294;23;20033;-91
2021/10/21 12:53:03;;;;;;;2.88;0.80;;;9.90;99.90;;;;;;6092150;23;20426;-92
2021/10/21 12:55:36;;;;;;;2.55;0.60;;;10.00;99.90;;;;;;6072105;23;20007;-92
2021/10/21 12:58:23;;;;;;;4.20;0.80;;;10.20;99.90;;;;;;6095270;23;20467;-93
2021/10/21 13:01:05;;;;;;;5.50;0.95;;;10.80;99.90;;;;;;6070906;23;20045;-91
2021/10/21 13:03:43;;;;;;;5.95;0.73;;;11.30;99.90;;;;;;6066278;23;20010;-92
2021/10/21 13:06:11;;;;;;;2.13;0.55;;;12.40;99.90;;;;;;6088486;23;20025;-90
2021/10/21 13:08:51;;;;;;;5.10;0.70;;;12.60;99.90;;;;;;6042817;23;20006;-90
2021/10/21 13:11:26;;;;;;;3.45;0.80;;;12.30;99.90;;;;;;6068475;23;20006;-92
2021/10/21 13:14:01;;;;;;;4.97;1.13;;;12.00;99.90;;;;;;6068080;23;20419;-93
2021/10/21 13:16:33;;;;;;;3.78;0.70;;;11.60;99.90;;;;;;6043673;23;20020;-93
2021/10/21 13:19:07;;;;;;;3.63;0.70;;;11.10;99.90;;;;;;6064168;23;20014;-92
2021/10/21 13:21:34;;;;;;;4.53;0.95;;;10.80;99.90;;;;;;6172918;23;20008;-92
2021/10/21 13:24:02;;;;;;;5.65;1.10;;;10.50;99.90;;;;;;6216153;23;20028;-92
2021/10/21 13:26:54;;;;;;;3.90;0.80;;;10.40;99.90;;;;;;6216269;23;20068;-92
2021/10/21 13:29:23;;;;;;;4.10;0.80;;;10.10;99.90;;;;;;6241678;23;20111;-91
2021/10/21 13:31:49;;;;;;;5.53;0.80;;;10.00;99.90;;;;;;6215163;23;20008;-89
2021/10/21 13:34:20;;;;;;;5.65;0.80;;;10.00;99.90;;;;;;6215635;23;20004;-91
2021/10/21 13:36:49;;;;;;;5.18;0.80;;;10.30;99.90;;;;;;6245173;23;20004;-90